Time;durP1;ratioP1;P1;durP2;ratioP2;P2;SDS_P1;SDS_P2;PMS_P1;PMS_P2;Temp;Humidity;BMP_temperature;BMP_pressure;BME280_temperature;BME280_humidity;BME280_pressure;Samples;Min_cycle;Max_cycle;Signal;HPM_P1;HPM_P2
2020/12/19 00:00:38;;;;;;;12.73;8.60;;;;;;;1.11;75.85;96264.69;5038831;28;20136;-49
2020/12/19 00:03:05;;;;;;;13.27;9.35;;;;;;;1.22;75.38;96278.84;5036481;28;20106;-50
2020/12/19 00:05:31;;;;;;;12.25;8.45;;;;;;;1.13;75.70;96273.22;5050995;28;20152;-48
2020/12/19 00:07:58;;;;;;;13.25;8.75;;;;;;;1.25;75.15;96264.97;5045988;28;20076;-51
2020/12/19 00:10:24;;;;;;;12.00;8.10;;;;;;;1.16;75.28;96256.69;5031883;28;20049;-52
2020/12/19 00:12:51;;;;;;;12.48;8.23;;;;;;;1.16;75.40;96262.03;5033270;28;20077;-56
2020/12/19 00:15:18;;;;;;;14.07;8.48;;;;;;;1.32;74.53;96257.53;5050244;28;20609;-49
2020/12/19 00:17:45;;;;;;;10.82;7.85;;;;;;;1.26;74.81;96258.56;5036908;28;20139;-53
2020/12/19 00:20:12;;;;;;;13.48;8.70;;;;;;;1.20;74.87;96255.09;5051581;28;20044;-52
2020/12/19 00:22:38;;;;;;;15.02;9.45;;;;;;;1.17;74.97;96251.13;5048973;28;20053;-49
2020/12/19 00:25:04;;;;;;;11.88;8.68;;;;;;;1.28;74.61;96243.91;5037571;28;20049;-53
2020/12/19 00:27:31;;;;;;;11.70;7.95;;;;;;;1.32;74.50;96234.31;5031179;28;20064;-50
2020/12/19 00:29:57;;;;;;;14.35;8.65;;;;;;;1.24;74.57;96234.06;5033876;28;20100;-50
2020/12/19 00:32:24;;;;;;;10.98;7.50;;;;;;;1.27;74.39;96229.00;5013834;28;20076;-54
2020/12/19 00:34:55;;;;;;;12.35;8.35;;;;;;;1.37;73.84;96231.66;5025525;28;20060;-51
2020/12/19 00:37:22;;;;;;;12.70;8.43;;;;;;;1.45;73.43;96225.00;5010950;28;20092;-50
2020/12/19 00:39:49;;;;;;;11.77;8.27;;;;;;;1.52;73.20;96228.19;5030150;28;20133;-53
2020/12/19 00:42:16;;;;;;;12.65;7.95;;;;;;;1.53;73.34;96237.81;5031150;28;20057;-50
2020/12/19 00:44:43;;;;;;;12.93;8.55;;;;;;;1.53;73.11;96221.81;5047493;28;20140;-51
2020/12/19 00:47:10;;;;;;;12.80;9.27;;;;;;;1.48;73.16;96219.13;5050809;28;20064;-53
2020/12/19 00:49:36;;;;;;;10.77;8.00;;;;;;;1.47;72.99;96222.88;5038440;28;20072;-53
2020/12/19 00:52:03;;;;;;;12.85;8.52;;;;;;;1.49;72.81;96214.59;5021501;28;20590;-52
2020/12/19 00:54:29;;;;;;;10.48;7.60;;;;;;;1.44;72.90;96218.06;5033583;28;20058;-55
2020/12/19 00:56:56;;;;;;;13.15;8.20;;;;;;;1.49;72.58;96215.38;5033534;28;20057;-50
2020/12/19 00:59:23;;;;;;;10.52;7.95;;;;;;;1.26;73.01;96205.25;5032126;28;20053;-53
2020/12/19 01:01:49;;;;;;;10.30;7.63;;;;;;;1.43;72.82;96211.16;5045059;28;20084;-55
2020/12/19 01:04:16;;;;;;;10.65;7.85;;;;;;;1.47;72.47;96228.22;5034469;28;20057;-55
2020/12/19 01:06:42;;;;;;;11.95;8.52;;;;;;;1.46;72.49;96209.78;5032947;28;20076;-54
2020/12/19 01:09:09;;;;;;;10.43;7.55;;;;;;;1.47;72.36;96211.41;5030672;28;20106;-53
2020/12/19 01:11:37;;;;;;;15.00;10.25;;;;;;;1.41;72.78;96218.59;5023070;28;20339;-51
2020/12/19 01:14:05;;;;;;;12.15;8.43;;;;;;;1.39;72.87;96216.19;5014961;28;20073;-53
2020/12/19 01:16:32;;;;;;;11.85;8.23;;;;;;;1.31;72.68;96224.72;5032056;28;20084;-53
2020/12/19 01:19:04;;;;;;;11.07;7.68;;;;;;;1.25;73.08;96217.00;5024477;28;20041;-48
2020/12/19 01:21:32;;;;;;;11.88;8.48;;;;;;;1.12;73.84;96218.31;5032527;28;20398;-48
2020/12/19 01:23:58;;;;;;;11.75;8.10;;;;;;;1.03;74.15;96228.69;5033609;28;20049;-49
2020/12/19 01:26:26;;;;;;;11.52;7.68;;;;;;;0.93;74.69;96218.00;5017752;28;20050;-53
2020/12/19 01:28:53;;;;;;;11.35;7.90;;;;;;;0.89;74.82;96219.63;5014328;28;20053;-51
2020/12/19 01:31:21;;;;;;;11.55;7.45;;;;;;;0.89;74.79;96216.94;5013783;28;20046;-51
2020/12/19 01:33:49;;;;;;;10.38;7.70;;;;;;;0.80;74.71;96197.22;5013151;28;20080;-54
2020/12/19 01:36:21;;;;;;;10.65;7.82;;;;;;;1.00;74.07;96207.91;5032406;28;20422;-48
2020/12/19 01:38:49;;;;;;;11.45;8.18;;;;;;;1.04;73.92;96206.31;5032539;28;20084;-47
2020/12/19 01:41:15;;;;;;;10.35;7.78;;;;;;;1.03;73.64;96206.56;5014171;28;20100;-50
2020/12/19 01:43:51;;;;;;;11.32;7.22;;;;;;;1.03;73.95;96212.69;5013068;28;20058;-52
2020/12/19 01:46:43;;;;;;;10.63;6.97;;;;;;;1.10;73.81;96207.13;5029719;28;20045;-47
2020/12/19 01:49:09;;;;;;;10.88;7.63;;;;;;;1.04;73.56;96201.00;5033700;28;20073;-46
2020/12/19 01:51:37;;;;;;;12.13;7.90;;;;;;;0.90;74.17;96218.53;5033867;28;20053;-51
2020/12/19 01:54:07;;;;;;;10.98;7.63;;;;;;;0.88;73.98;96180.72;5014579;28;20475;-51
2020/12/19 01:56:39;;;;;;;10.82;7.90;;;;;;;0.99;73.31;96198.31;5013524;28;20042;-49
2020/12/19 01:59:06;;;;;;;11.30;7.20;;;;;;;1.01;73.32;96195.38;5014655;28;20116;-50
2020/12/19 02:01:41;;;;;;;10.13;7.20;;;;;;;1.03;73.56;96196.72;5013770;28;20049;-49
2020/12/19 02:04:08;;;;;;;11.63;7.47;;;;;;;0.96;73.76;96190.06;5014022;28;20126;-49
2020/12/19 02:06:34;;;;;;;10.07;7.38;;;;;;;0.99;73.59;96190.31;5013511;28;20056;-50
2020/12/19 02:09:01;;;;;;;9.80;7.47;;;;;;;1.06;73.01;96195.38;5030416;28;20051;-47
2020/12/19 02:11:27;;;;;;;12.02;8.48;;;;;;;1.10;72.82;96197.25;5031692;28;20052;-48
2020/12/19 02:13:54;;;;;;;11.77;8.07;;;;;;;1.10;73.02;96181.25;5033229;28;20072;-48
2020/12/19 02:16:21;;;;;;;9.73;7.40;;;;;;;0.99;73.03;96179.66;5025273;28;20054;-52
2020/12/19 02:18:47;;;;;;;9.77;7.15;;;;;;;1.04;72.87;96185.00;5013432;28;20052;-47
2020/12/19 02:21:14;;;;;;;10.43;7.20;;;;;;;1.00;73.23;96178.59;5013412;28;20038;-49
2020/12/19 02:23:40;;;;;;;10.40;7.45;;;;;;;1.07;72.80;96179.16;5013271;28;20073;-47
2020/12/19 02:26:06;;;;;;;8.82;6.45;;;;;;;1.11;72.72;96168.75;5012967;28;20065;-52
2020/12/19 02:28:33;;;;;;;12.48;7.65;;;;;;;1.00;72.82;96165.28;5013168;28;20060;-47
2020/12/19 02:30:59;;;;;;;9.60;7.75;;;;;;;0.98;72.75;96170.09;5025333;28;20046;-50
2020/12/19 02:33:26;;;;;;;11.45;7.28;;;;;;;0.93;72.98;96165.53;5024163;28;20053;-50
2020/12/19 02:36:07;;;;;;;10.73;7.38;;;;;;;0.85;73.38;96167.94;5024593;28;20053;-47
2020/12/19 02:38:33;;;;;;;10.02;7.03;;;;;;;0.80;73.18;96166.03;5032842;28;20049;-50
2020/12/19 02:41:00;;;;;;;11.40;7.22;;;;;;;0.73;73.26;96148.72;5020517;28;20052;-49
2020/12/19 02:43:26;;;;;;;9.25;7.13;;;;;;;0.96;72.74;96166.06;5013005;28;20115;-49
2020/12/19 02:45:52;;;;;;;10.02;7.40;;;;;;;0.95;72.71;96165.28;5012857;28;20056;-49
2020/12/19 02:48:19;;;;;;;10.52;7.10;;;;;;;0.94;72.62;96153.00;5013308;28;20058;-50
2020/12/19 02:50:46;;;;;;;9.80;6.82;;;;;;;0.51;72.61;96099.16;5021961;28;20081;-50
2020/12/19 02:53:12;;;;;;;10.32;6.53;;;;;;;0.79;72.71;96159.13;5032798;28;20180;-48
2020/12/19 02:55:38;;;;;;;9.63;7.28;;;;;;;0.87;72.64;96155.13;5030761;28;20513;-50
2020/12/19 02:58:05;;;;;;;10.50;7.22;;;;;;;0.82;72.91;96152.47;5032466;28;20049;-49
2020/12/19 03:00:31;;;;;;;8.65;6.50;;;;;;;0.75;73.06;96155.41;5026826;28;20129;-48
2020/12/19 03:02:58;;;;;;;10.57;7.10;;;;;;;0.72;73.21;96155.94;5012896;28;20054;-52
2020/12/19 03:05:24;;;;;;;9.75;6.70;;;;;;;0.78;73.26;96151.38;5012846;28;20394;-50
2020/12/19 03:07:51;;;;;;;11.35;7.90;;;;;;;0.72;73.06;96152.47;5013313;28;20045;-54
2020/12/19 03:10:17;;;;;;;10.60;7.55;;;;;;;0.57;73.05;96147.91;5012494;28;20133;-51
2020/12/19 03:12:43;;;;;;;9.75;7.10;;;;;;;0.52;74.25;96154.03;5012570;28;20057;-51
2020/12/19 03:15:10;;;;;;;11.52;6.78;;;;;;;0.38;74.75;96163.53;5012420;28;20538;-51
2020/12/19 03:17:36;;;;;;;9.40;6.68;;;;;;;0.33;74.80;96158.22;5012153;28;20073;-49
2020/12/19 03:20:04;;;;;;;9.05;6.93;;;;;;;0.39;74.66;96157.97;5026869;28;20132;-50
2020/12/19 03:22:30;;;;;;;8.52;6.75;;;;;;;0.34;74.49;96135.88;5032163;28;20045;-49
2020/12/19 03:24:57;;;;;;;9.73;7.05;;;;;;;0.61;74.08;96149.75;5019603;28;20132;-50
2020/12/19 03:27:23;;;;;;;9.85;7.32;;;;;;;0.56;74.18;96152.44;5012130;28;20080;-53
2020/12/19 03:29:49;;;;;;;8.93;6.45;;;;;;;0.47;74.74;96157.47;5012450;28;20093;-50
2020/12/19 03:32:16;;;;;;;11.52;7.75;;;;;;;0.45;74.23;96158.78;5012822;28;20050;-52
2020/12/19 03:34:43;;;;;;;10.30;7.28;;;;;;;0.41;75.03;96152.38;5012096;28;20054;-49
2020/12/19 03:37:09;;;;;;;11.57;7.50;;;;;;;0.36;75.15;96157.72;5010827;28;20402;-52
2020/12/19 03:39:35;;;;;;;9.32;7.00;;;;;;;0.31;75.55;96155.81;5012321;28;20404;-49
2020/12/19 03:42:02;;;;;;;10.15;7.13;;;;;;;0.31;75.57;96152.34;5018337;28;20068;-49
2020/12/19 03:44:28;;;;;;;10.77;7.15;;;;;;;0.37;75.12;96151.31;5031739;28;20042;-48
2020/12/19 03:46:55;;;;;;;10.95;7.90;;;;;;;0.26;75.02;96157.66;5027241;28;20129;-49
2020/12/19 03:49:21;;;;;;;9.30;7.10;;;;;;;0.28;75.48;96155.53;5011801;28;20125;-48
2020/12/19 03:51:49;;;;;;;11.02;6.78;;;;;;;0.38;74.66;96153.69;5012080;28;20080;-50
2020/12/19 03:54:16;;;;;;;11.00;6.97;;;;;;;0.25;75.47;96154.19;5011645;28;20533;-52
2020/12/19 03:56:43;;;;;;;10.52;7.30;;;;;;;0.21;75.64;96140.59;5011893;28;20050;-48
2020/12/19 03:59:09;;;;;;;9.05;6.25;;;;;;;0.41;74.97;96157.72;5012226;28;20129;-48
2020/12/19 04:01:35;;;;;;;9.57;6.45;;;;;;;0.42;75.01;96159.28;5011790;28;20046;-52
2020/12/19 04:04:02;;;;;;;10.75;7.15;;;;;;;0.39;74.57;96157.16;5012012;28;20053;-50
2020/12/19 04:06:28;;;;;;;11.02;7.45;;;;;;;0.33;75.19;96150.25;5026740;28;20071;-50
2020/12/19 04:08:54;;;;;;;12.57;7.75;;;;;;;0.35;75.57;96156.09;5031120;28;20134;-49
2020/12/19 04:11:21;;;;;;;12.27;8.65;;;;;;;0.27;75.55;96153.94;5015753;28;20046;-50
2020/12/19 04:13:47;;;;;;;12.25;7.95;;;;;;;0.03;76.88;96150.91;5011906;28;20052;-52
2020/12/19 04:16:14;;;;;;;11.27;8.07;;;;;;;0.13;76.83;96159.75;5011782;28;20054;-51
2020/12/19 04:18:40;;;;;;;11.63;7.78;;;;;;;0.12;76.56;96160.78;5011953;28;20073;-49
2020/12/19 04:21:07;;;;;;;12.77;8.05;;;;;;;0.21;76.43;96153.91;5011519;28;20089;-50
2020/12/19 04:23:34;;;;;;;10.35;7.07;;;;;;;0.30;76.02;96148.09;5021035;28;20498;-49
2020/12/19 04:26:01;;;;;;;11.23;7.30;;;;;;;0.26;76.28;96154.97;5034997;28;20069;-48
2020/12/19 04:28:28;;;;;;;13.63;8.13;;;;;;;0.17;76.81;96142.19;5034489;28;20077;-51
2020/12/19 04:30:55;;;;;;;9.88;6.85;;;;;;;0.26;76.32;96147.81;5035011;28;20139;-56
2020/12/19 04:33:24;;;;;;;10.55;6.90;;;;;;;0.26;76.63;96150.50;5019203;28;20487;-51
2020/12/19 04:35:53;;;;;;;9.75;6.60;;;;;;;0.36;76.31;96141.72;5015019;28;20045;-50
2020/12/19 04:38:19;;;;;;;10.48;6.80;;;;;;;0.55;75.27;96139.38;5014147;28;20217;-52
2020/12/19 04:40:46;;;;;;;10.23;6.93;;;;;;;0.59;74.63;96143.91;5015188;28;20065;-50
2020/12/19 04:43:15;;;;;;;14.10;7.35;;;;;;;0.59;75.08;96143.13;5015351;28;20132;-49
2020/12/19 04:45:43;;;;;;;10.02;7.07;;;;;;;0.43;75.07;96131.63;5015096;28;20060;-49
2020/12/19 04:48:09;;;;;;;13.52;6.78;;;;;;;0.40;75.33;96148.13;5017910;28;20044;-48
2020/12/19 04:50:40;;;;;;;11.60;7.20;;;;;;;0.44;75.41;96142.00;5031035;28;20391;-50
2020/12/19 04:53:17;;;;;;;12.35;7.50;;;;;;;0.52;75.60;96143.38;5032318;28;20059;-53
2020/12/19 04:55:45;;;;;;;9.15;6.63;;;;;;;0.59;75.30;96151.91;5014849;28;20481;-53
2020/12/19 04:58:18;;;;;;;12.90;6.32;;;;;;;0.54;75.03;96145.75;5015317;28;20053;-48
2020/12/19 05:00:46;;;;;;;9.80;6.68;;;;;;;0.51;75.33;96147.09;5015182;28;20054;-50
2020/12/19 05:03:13;;;;;;;10.70;6.93;;;;;;;0.67;75.11;96151.38;5014639;28;20050;-49
2020/12/19 05:05:41;;;;;;;9.77;7.07;;;;;;;0.44;74.93;96122.56;5015013;28;20140;-50
2020/12/19 05:08:08;;;;;;;8.73;6.13;;;;;;;0.65;74.83;96150.03;5033806;28;20057;-50
2020/12/19 05:10:35;;;;;;;9.18;6.75;;;;;;;0.80;74.40;96159.94;5034676;28;20075;-52
2020/12/19 05:13:02;;;;;;;8.95;5.82;;;;;;;0.77;74.46;96150.59;5033427;28;20122;-50
2020/12/19 05:15:28;;;;;;;9.65;6.07;;;;;;;0.60;74.80;96147.38;5029658;28;20052;-48
2020/12/19 05:17:56;;;;;;;9.25;6.85;;;;;;;0.54;74.79;96121.81;5014626;28;20053;-50
2020/12/19 05:20:24;;;;;;;9.90;6.78;;;;;;;0.65;74.81;96142.88;5014639;28;20137;-49
2020/12/19 05:22:51;;;;;;;8.40;6.45;;;;;;;0.67;74.71;96145.25;5014999;28;20038;-51
2020/12/19 05:25:21;;;;;;;9.30;6.32;;;;;;;0.74;74.82;96147.66;5014377;28;20064;-53
2020/12/19 05:27:48;;;;;;;9.68;6.57;;;;;;;0.69;74.30;96159.91;5014331;28;20050;-49
2020/12/19 05:30:17;;;;;;;9.45;6.45;;;;;;;0.76;73.92;96140.22;5014833;28;20050;-51
2020/12/19 05:32:44;;;;;;;10.70;6.68;;;;;;;0.73;73.69;96149.53;5033598;28;20037;-51
2020/12/19 05:35:11;;;;;;;8.90;6.63;;;;;;;0.65;74.09;96150.84;5033559;28;20059;-50
2020/12/19 05:38:01;;;;;;;9.25;6.38;;;;;;;0.53;73.72;96115.69;5014472;28;20053;-51
2020/12/19 05:40:31;;;;;;;8.65;5.97;;;;;;;0.78;73.58;96151.38;5014485;28;20100;-50
2020/12/19 05:42:58;;;;;;;8.45;5.88;;;;;;;0.72;74.06;96153.25;5030732;28;20125;-50
2020/12/19 05:45:26;;;;;;;9.60;6.05;;;;;;;0.65;74.07;96156.19;5027055;28;20073;-50
2020/12/19 05:47:53;;;;;;;8.85;5.93;;;;;;;0.66;73.58;96127.69;5031919;28;20053;-49
2020/12/19 05:50:21;;;;;;;8.93;6.22;;;;;;;0.73;73.42;96154.84;5033451;28;20096;-50
2020/12/19 05:52:48;;;;;;;9.90;6.28;;;;;;;0.71;73.65;96162.28;5033035;28;20053;-51
2020/12/19 05:55:19;;;;;;;9.63;5.88;;;;;;;0.72;73.86;96152.47;5013973;28;20049;-53
2020/12/19 05:57:46;;;;;;;9.10;6.53;;;;;;;0.58;74.19;96152.94;5014643;28;20157;-53
2020/12/19 06:00:15;;;;;;;7.88;5.65;;;;;;;0.54;74.58;96154.53;5021580;28;20580;-53
2020/12/19 06:02:43;;;;;;;9.35;6.13;;;;;;;0.54;74.55;96151.88;5033328;28;20081;-50
2020/12/19 06:05:15;;;;;;;8.88;6.07;;;;;;;0.49;74.79;96164.38;5032703;28;20050;-52
2020/12/19 06:07:43;;;;;;;9.10;6.20;;;;;;;0.70;73.95;96161.50;5033310;28;20057;-51
2020/12/19 06:10:18;;;;;;;8.40;6.20;;;;;;;0.63;74.01;96144.19;5013501;28;20077;-48
2020/12/19 06:13:10;;;;;;;9.60;6.47;;;;;;;0.64;73.98;96173.19;5012912;28;20050;-53
2020/12/19 06:15:48;;;;;;;9.68;6.80;;;;;;;0.19;75.79;96182.63;5013952;28;20136;-50
2020/12/19 06:18:42;;;;;;;8.05;6.20;;;;;;;0.42;75.14;96177.94;5024522;28;20104;-50
2020/12/19 06:21:10;;;;;;;9.70;6.38;;;;;;;0.45;75.05;96174.75;5033231;28;20050;-49
2020/12/19 06:23:37;;;;;;;9.82;6.32;;;;;;;0.50;74.93;96172.09;5015862;28;20502;-51
2020/12/19 06:26:05;;;;;;;8.48;6.00;;;;;;;0.58;74.44;96173.44;5013043;28;20054;-50
2020/12/19 06:28:40;;;;;;;8.60;6.30;;;;;;;0.62;74.56;96166.56;5013542;28;20132;-53
2020/12/19 06:31:19;;;;;;;7.95;5.78;;;;;;;0.63;74.19;96170.81;5013565;28;20061;-51
2020/12/19 06:33:51;;;;;;;8.90;6.53;;;;;;;0.74;73.53;96171.63;5013574;28;20053;-51
2020/12/19 06:36:20;;;;;;;7.72;5.93;;;;;;;0.67;74.07;96172.69;5012852;28;20077;-51
2020/12/19 06:38:51;;;;;;;11.73;6.50;;;;;;;0.44;74.67;96181.13;5029808;28;20049;-50
2020/12/19 06:41:44;;;;;;;8.70;6.05;;;;;;;0.68;74.43;96163.66;5026349;28;20063;-53
2020/12/19 06:44:22;;;;;;;8.35;6.03;;;;;;;0.70;74.13;96169.50;5032726;28;20386;-51
2020/12/19 06:46:49;;;;;;;14.52;7.00;;;;;;;0.33;74.48;96166.22;5029461;28;20057;-49
2020/12/19 06:49:39;;;;;;;9.10;6.60;;;;;;;0.30;75.50;96169.41;5017553;28;20543;-53
2020/12/19 06:52:13;;;;;;;8.88;6.20;;;;;;;0.27;75.54;96164.59;5027628;28;20045;-49
2020/12/19 06:54:45;;;;;;;9.73;6.82;;;;;;;0.21;75.89;96182.38;5013028;28;20066;-51
2020/12/19 06:57:26;;;;;;;10.13;6.75;;;;;;;0.36;75.79;96176.34;5012539;28;20080;-53
2020/12/19 06:59:55;;;;;;;9.32;6.15;;;;;;;0.50;74.81;96181.97;5013439;28;20042;-54
2020/12/19 07:02:25;;;;;;;9.98;6.57;;;;;;;0.44;74.58;96181.13;5013186;28;20085;-50
2020/12/19 07:04:52;;;;;;;8.13;6.25;;;;;;;0.35;75.15;96182.69;5017201;28;20046;-51
2020/12/19 07:07:25;;;;;;;9.73;6.40;;;;;;;0.53;74.71;96192.09;5023985;28;20088;-51
2020/12/19 07:10:00;;;;;;;8.73;6.13;;;;;;;0.52;74.80;96183.31;5027226;28;20564;-53
2020/12/19 07:12:38;;;;;;;10.90;6.32;;;;;;;0.54;74.34;96186.50;5012632;28;20116;-51
2020/12/19 07:15:11;;;;;;;9.63;6.82;;;;;;;0.52;74.46;96180.66;5012716;28;20129;-50
2020/12/19 07:17:48;;;;;;;8.60;5.70;;;;;;;0.53;74.09;96178.78;5011097;28;20145;-50
2020/12/19 07:20:21;;;;;;;8.57;5.97;;;;;;;0.55;73.55;96185.41;5012994;28;20415;-49
2020/12/19 07:22:49;;;;;;;7.55;5.45;;;;;;;0.42;73.81;96183.25;5012681;28;20049;-51
2020/12/19 07:25:16;;;;;;;8.93;6.22;;;;;;;0.44;73.97;96186.47;5023308;28;20056;-52
2020/12/19 07:27:43;;;;;;;8.38;5.93;;;;;;;0.53;73.90;96200.06;5023339;28;20410;-50
2020/12/19 07:30:09;;;;;;;9.48;6.57;;;;;;;0.52;73.83;96185.97;5012441;28;20415;-49
2020/12/19 07:32:35;;;;;;;9.18;6.22;;;;;;;0.47;74.07;96191.28;5012423;28;20519;-53
2020/12/19 07:35:03;;;;;;;9.40;6.40;;;;;;;0.46;74.09;96195.78;5012757;28;20056;-48
2020/12/19 07:37:32;;;;;;;9.75;6.15;;;;;;;0.38;74.26;96190.97;5013381;28;20057;-50
2020/12/19 07:40:07;;;;;;;8.63;5.85;;;;;;;0.44;73.92;96183.81;5025194;28;20053;-51
2020/12/19 07:42:33;;;;;;;8.88;5.97;;;;;;;0.23;74.03;96178.41;5031633;28;20049;-51
2020/12/19 07:44:59;;;;;;;9.90;6.78;;;;;;;0.39;74.39;96202.41;5030465;28;20045;-50
2020/12/19 07:47:26;;;;;;;8.77;6.05;;;;;;;0.45;74.39;96196.84;5018835;28;20063;-49
2020/12/19 07:49:53;;;;;;;11.45;6.88;;;;;;;0.60;74.31;96192.63;5012444;28;20120;-49
2020/12/19 07:52:21;;;;;;;10.20;7.22;;;;;;;0.37;75.55;96208.00;5012259;28;20495;-48
2020/12/19 07:55:01;;;;;;;11.65;6.68;;;;;;;0.42;74.95;96207.22;5012484;28;20053;-49
2020/12/19 07:57:30;;;;;;;11.15;7.10;;;;;;;0.22;75.22;96205.25;5012030;28;20046;-47
2020/12/19 07:59:58;;;;;;;9.88;6.72;;;;;;;0.34;75.25;96205.06;5012392;28;20054;-46
2020/12/19 08:02:25;;;;;;;11.38;6.97;;;;;;;0.44;75.01;96210.41;5012563;28;20053;-50
2020/12/19 08:04:56;;;;;;;11.68;6.05;;;;;;;0.51;75.15;96210.97;5017269;28;20088;-48
2020/12/19 08:07:28;;;;;;;9.73;6.75;;;;;;;0.53;75.06;96208.88;5023580;28;20572;-50
2020/12/19 08:10:07;;;;;;;10.77;6.85;;;;;;;0.57;75.35;96211.78;5025912;28;20050;-49
2020/12/19 08:12:33;;;;;;;11.70;7.15;;;;;;;0.39;74.85;96197.06;5012659;28;20133;-47
2020/12/19 08:15:05;;;;;;;13.27;7.38;;;;;;;0.27;75.55;96197.31;5012469;28;20096;-48
2020/12/19 08:17:36;;;;;;;12.73;7.97;;;;;;;0.48;75.62;96216.81;5012087;28;20054;-51
2020/12/19 08:20:03;;;;;;;14.25;8.07;;;;;;;0.40;75.17;96194.19;5011769;28;20489;-54
2020/12/19 08:22:30;;;;;;;10.52;7.55;;;;;;;0.64;75.08;96215.81;5010307;28;20137;-53
2020/12/19 08:24:59;;;;;;;11.77;6.80;;;;;;;0.37;74.51;96191.25;5015924;28;20506;-51
2020/12/19 08:27:40;;;;;;;11.65;6.53;;;;;;;0.40;75.04;96214.66;5029909;28;20045;-55
2020/12/19 08:30:11;;;;;;;9.82;6.45;;;;;;;0.26;75.56;96205.53;5025258;28;20124;-55
2020/12/19 08:32:42;;;;;;;11.40;7.72;;;;;;;0.38;76.06;96214.13;5027081;28;20067;-55
2020/12/19 08:35:16;;;;;;;13.57;6.97;;;;;;;0.42;75.36;96216.03;5031113;28;20612;-54
2020/12/19 08:38:21;;;;;;;18.55;9.77;;;;;;;0.53;77.09;96222.16;5015280;28;20046;-54
2020/12/19 08:40:49;;;;;;;10.95;7.55;;;;;;;0.47;75.90;96220.56;5011337;28;20123;-49
2020/12/19 08:43:31;;;;;;;11.00;7.53;;;;;;;0.56;75.88;96226.19;5019052;28;20530;-49
2020/12/19 08:46:07;;;;;;;11.60;8.13;;;;;;;0.61;75.31;96237.63;5029592;28;20076;-49
2020/12/19 08:48:34;;;;;;;11.38;7.38;;;;;;;0.53;75.37;96224.84;5013990;28;20411;-49
2020/12/19 08:51:08;;;;;;;14.55;8.18;;;;;;;0.69;75.30;96229.16;5011557;28;20136;-53
2020/12/19 08:53:35;;;;;;;11.95;7.60;;;;;;;0.74;75.46;96224.91;5011654;28;20057;-50
2020/12/19 08:56:13;;;;;;;10.65;7.43;;;;;;;0.77;75.66;96230.50;5022813;28;20049;-50
2020/12/19 08:58:40;;;;;;;11.75;7.80;;;;;;;0.84;74.94;96227.56;5031079;28;20157;-51
2020/12/19 09:01:14;;;;;;;11.25;7.38;;;;;;;0.85;74.86;96231.88;5027630;28;20100;-50
2020/12/19 09:03:42;;;;;;;15.27;8.15;;;;;;;0.83;74.61;96232.09;5027237;28;20049;-49
2020/12/19 09:06:11;;;;;;;10.77;7.65;;;;;;;0.84;75.46;96240.91;5010899;28;20041;-48
2020/12/19 09:08:39;;;;;;;15.60;8.90;;;;;;;0.81;74.83;96230.78;5012765;28;20565;-48
2020/12/19 09:11:08;;;;;;;16.75;9.93;;;;;;;0.55;76.06;96232.56;5029622;28;20155;-49
2020/12/19 09:13:36;;;;;;;13.93;9.10;;;;;;;0.58;76.88;96235.50;5032735;28;20046;-48
2020/12/19 09:16:05;;;;;;;13.30;8.55;;;;;;;0.75;76.47;96237.97;5032439;28;20049;-50
2020/12/19 09:18:34;;;;;;;10.88;7.72;;;;;;;0.71;75.33;96236.88;5032808;28;20052;-49
2020/12/19 09:21:03;;;;;;;11.95;8.02;;;;;;;0.78;75.72;96248.09;5026021;28;20411;-52
2020/12/19 09:23:30;;;;;;;10.52;7.63;;;;;;;0.96;75.27;96227.34;5030078;28;20392;-49
2020/12/19 09:26:01;;;;;;;10.15;7.25;;;;;;;1.26;74.40;96227.38;5028853;28;20057;-49
2020/12/19 09:28:28;;;;;;;11.13;7.95;;;;;;;1.24;74.29;96226.06;5032519;28;20135;-53
2020/12/19 09:30:56;;;;;;;11.68;7.88;;;;;;;1.23;74.18;96227.91;5030998;28;20426;-52
2020/12/19 09:33:23;;;;;;;11.93;8.30;;;;;;;1.34;74.18;96231.41;5033050;28;20041;-48
2020/12/19 09:35:50;;;;;;;11.50;8.05;;;;;;;1.34;73.91;96234.06;5032875;28;20046;-53
2020/12/19 09:38:17;;;;;;;12.27;8.80;;;;;;;1.31;74.47;96245.25;5023898;28;20445;-53
2020/12/19 09:40:44;;;;;;;11.90;8.13;;;;;;;1.34;74.15;96229.53;5020847;28;20081;-50
2020/12/19 09:43:10;;;;;;;12.02;8.65;;;;;;;1.26;74.41;96222.06;5018304;28;20077;-51
2020/12/19 09:45:38;;;;;;;14.15;8.38;;;;;;;1.26;74.03;96230.06;5013084;28;20136;-52
2020/12/19 09:48:05;;;;;;;13.02;8.45;;;;;;;1.20;74.54;96231.09;5027389;28;20041;-54
2020/12/19 09:50:32;;;;;;;11.90;8.63;;;;;;;1.26;74.88;96223.91;5020006;28;20426;-53
2020/12/19 09:52:58;;;;;;;11.52;8.50;;;;;;;1.36;74.02;96221.25;5014519;28;20050;-52
2020/12/19 09:55:27;;;;;;;11.45;7.90;;;;;;;1.28;73.68;96225.25;5026076;28;20131;-51
2020/12/19 09:57:55;;;;;;;11.10;7.88;;;;;;;1.20;74.05;96219.66;5032934;28;20494;-49
2020/12/19 10:00:22;;;;;;;12.27;8.75;;;;;;;1.10;74.39;96213.25;5032633;28;20099;-52
2020/12/19 10:02:50;;;;;;;13.73;8.70;;;;;;;1.19;74.78;96220.72;5023226;28;20125;-52
2020/12/19 10:05:17;;;;;;;12.15;8.70;;;;;;;1.27;74.37;96206.84;5029592;28;20057;-52
2020/12/19 10:07:43;;;;;;;12.55;8.20;;;;;;;1.35;74.59;96214.34;5020135;28;20053;-52
2020/12/19 10:10:10;;;;;;;11.77;8.05;;;;;;;1.33;74.01;96206.63;5013988;28;20054;-50
2020/12/19 10:12:37;;;;;;;12.52;9.02;;;;;;;1.48;73.51;96221.81;5015680;28;20054;-49
2020/12/19 10:15:06;;;;;;;14.40;9.48;;;;;;;1.35;74.01;96217.00;5013375;28;20077;-49
2020/12/19 10:17:32;;;;;;;13.95;9.73;;;;;;;1.13;74.31;96193.25;5024195;28;20124;-50
2020/12/19 10:19:59;;;;;;;11.98;8.77;;;;;;;1.15;75.21;96207.94;5018101;28;20052;-50
2020/12/19 10:22:30;;;;;;;13.23;9.10;;;;;;;1.25;74.59;96222.34;5021693;28;20048;-53
2020/12/19 10:25:00;;;;;;;15.98;10.10;;;;;;;1.32;75.31;96214.88;5026707;28;20042;-50
2020/12/19 10:27:28;;;;;;;11.75;8.73;;;;;;;1.37;74.84;96207.69;5021197;28;20053;-46
2020/12/19 10:29:55;;;;;;;12.48;9.02;;;;;;;1.38;74.83;96214.59;5027284;28;20148;-47
2020/12/19 10:32:21;;;;;;;12.93;9.07;;;;;;;1.16;74.36;96198.06;5013506;28;20543;-48
2020/12/19 10:34:47;;;;;;;12.15;8.40;;;;;;;1.40;74.64;96209.81;5015263;28;20097;-54
2020/12/19 10:37:15;;;;;;;13.13;8.98;;;;;;;1.66;73.75;96209.81;5031523;28;20076;-53
2020/12/19 10:39:41;;;;;;;12.18;8.43;;;;;;;1.70;72.90;96199.41;5031680;28;20477;-50
2020/12/19 10:42:08;;;;;;;12.32;8.07;;;;;;;1.73;72.94;96202.31;5016123;28;20046;-52
2020/12/19 10:44:34;;;;;;;12.13;8.90;;;;;;;1.75;73.11;96205.50;5026837;28;20457;-45
2020/12/19 10:47:01;;;;;;;12.73;8.98;;;;;;;1.70;73.39;96200.19;5021374;28;20107;-49
2020/12/19 10:49:27;;;;;;;11.77;8.60;;;;;;;1.63;73.71;96199.66;5025101;28;20123;-47
2020/12/19 10:51:54;;;;;;;12.25;8.93;;;;;;;1.63;73.65;96197.81;5018163;28;20049;-47
2020/12/19 10:54:20;;;;;;;13.85;9.25;;;;;;;1.71;74.23;96200.97;5053192;28;20059;-48
2020/12/19 10:56:59;;;;;;;14.05;9.73;;;;;;;1.78;74.04;96206.84;5040669;28;20132;-50
2020/12/19 10:59:26;;;;;;;13.85;9.50;;;;;;;1.75;73.83;96186.84;5014480;28;20181;-48
2020/12/19 11:01:53;;;;;;;14.25;9.55;;;;;;;1.85;74.01;96199.34;5029455;28;20057;-50
2020/12/19 11:04:19;;;;;;;13.38;9.88;;;;;;;1.87;73.76;96210.56;5017652;28;20046;-50
2020/12/19 11:06:45;;;;;;;13.52;9.80;;;;;;;1.98;73.55;96190.81;5015701;28;20061;-49
2020/12/19 11:09:13;;;;;;;12.07;9.02;;;;;;;2.09;73.46;96187.03;5023933;28;20041;-47
2020/12/19 11:11:40;;;;;;;16.35;9.90;;;;;;;2.18;73.36;96191.78;5029290;28;20053;-47
2020/12/19 11:14:07;;;;;;;13.48;9.45;;;;;;;2.17;73.29;96182.19;5028622;28;20063;-53
2020/12/19 11:16:33;;;;;;;12.85;9.32;;;;;;;1.88;73.84;96174.81;5011944;28;20053;-47
2020/12/19 11:19:00;;;;;;;11.48;8.68;;;;;;;1.99;74.14;96179.06;5012954;28;20124;-49
2020/12/19 11:21:26;;;;;;;13.75;9.50;;;;;;;2.13;73.03;96176.59;5026423;28;20108;-45
2020/12/19 11:23:52;;;;;;;13.68;9.40;;;;;;;2.25;72.45;96173.66;5017490;28;20099;-45
2020/12/19 11:26:20;;;;;;;13.23;8.68;;;;;;;2.29;71.68;96172.03;5029790;28;20068;-50
2020/12/19 11:28:48;;;;;;;12.52;9.00;;;;;;;2.23;71.84;96168.56;5012643;28;20194;-47
2020/12/19 11:31:16;;;;;;;13.65;9.65;;;;;;;2.20;71.73;96169.09;5012212;28;20058;-49
2020/12/19 11:33:42;;;;;;;12.95;8.98;;;;;;;2.31;71.46;96164.53;5014118;28;20042;-47
2020/12/19 11:36:14;;;;;;;13.57;9.07;;;;;;;2.34;71.59;96166.66;5027264;28;20077;-55
2020/12/19 11:38:41;;;;;;;13.07;8.65;;;;;;;2.27;71.48;96171.47;5029822;28;20389;-46
2020/12/19 11:41:07;;;;;;;13.10;9.18;;;;;;;2.19;71.18;96138.16;5027713;28;20049;-52
2020/12/19 11:43:33;;;;;;;12.57;8.95;;;;;;;2.34;71.33;96166.66;5030941;28;20124;-52